sensor_id;sensor_type;location;lat;lon;timestamp;pressure;altitude;pressure_sealevel;temperature;humidity
9899;BME280;4988;49.238;6.698;2022-07-10T00:00:30;99933.31;;;19.30;59.88
9899;BME280;4988;49.238;6.698;2022-07-10T00:02:56;99929.22;;;19.24;60.25
9899;BME280;4988;49.238;6.698;2022-07-10T00:05:23;99926.41;;;19.13;60.59
9899;BME280;4988;49.238;6.698;2022-07-10T00:07:50;99932.00;;;19.10;61.04
9899;BME280;4988;49.238;6.698;2022-07-10T00:10:16;99927.63;;;18.94;61.16
9899;BME280;4988;49.238;6.698;2022-07-10T00:12:42;99922.47;;;18.91;61.51
9899;BME280;4988;49.238;6.698;2022-07-10T00:15:08;99927.75;;;18.93;61.82
9899;BME280;4988;49.238;6.698;2022-07-10T00:17:34;99926.78;;;18.94;61.72
9899;BME280;4988;49.238;6.698;2022-07-10T00:20:00;99920.81;;;18.89;61.91
9899;BME280;4988;49.238;6.698;2022-07-10T00:22:26;99928.13;;;18.87;61.79
9899;BME280;4988;49.238;6.698;2022-07-10T00:24:51;99925.75;;;18.82;61.91
9899;BME280;4988;49.238;6.698;2022-07-10T00:27:17;99923.03;;;18.69;62.40
9899;BME280;4988;49.238;6.698;2022-07-10T00:29:43;99935.44;;;18.72;62.82
9899;BME280;4988;49.238;6.698;2022-07-10T00:32:10;99923.56;;;18.61;63.14
9899;BME280;4988;49.238;6.698;2022-07-10T00:34:35;99929.34;;;18.55;63.43
9899;BME280;4988;49.238;6.698;2022-07-10T00:37:02;99924.03;;;18.54;63.58
9899;BME280;4988;49.238;6.698;2022-07-10T00:39:27;99922.97;;;18.56;64.11
9899;BME280;4988;49.238;6.698;2022-07-10T00:41:53;99924.03;;;18.54;64.20
9899;BME280;4988;49.238;6.698;2022-07-10T00:44:18;99931.69;;;18.47;64.02
9899;BME280;4988;49.238;6.698;2022-07-10T00:46:43;99929.19;;;18.44;64.03
9899;BME280;4988;49.238;6.698;2022-07-10T00:49:09;99935.06;;;18.51;63.98
9899;BME280;4988;49.238;6.698;2022-07-10T00:51:34;99930.50;;;18.51;64.21
9899;BME280;4988;49.238;6.698;2022-07-10T00:54:00;99933.97;;;18.53;64.15
9899;BME280;4988;49.238;6.698;2022-07-10T00:56:27;99941.53;;;18.48;64.30
9899;BME280;4988;49.238;6.698;2022-07-10T00:58:53;99932.88;;;18.43;64.95
9899;BME280;4988;49.238;6.698;2022-07-10T01:01:19;99934.38;;;18.47;64.62
9899;BME280;4988;49.238;6.698;2022-07-10T01:03:46;99933.47;;;18.33;65.08
9899;BME280;4988;49.238;6.698;2022-07-10T01:06:15;99930.41;;;18.25;65.32
9899;BME280;4988;49.238;6.698;2022-07-10T01:08:42;99920.78;;;18.21;65.52
9899;BME280;4988;49.238;6.698;2022-07-10T01:11:11;99926.59;;;18.15;65.80
9899;BME280;4988;49.238;6.698;2022-07-10T01:13:37;99924.41;;;18.07;65.72
9899;BME280;4988;49.238;6.698;2022-07-10T01:16:02;99926.59;;;18.00;66.64
9899;BME280;4988;49.238;6.698;2022-07-10T01:18:28;99931.97;;;17.86;66.51
9899;BME280;4988;49.238;6.698;2022-07-10T01:20:54;99933.91;;;17.84;66.75
9899;BME280;4988;49.238;6.698;2022-07-10T01:23:20;99928.81;;;17.79;67.45
9899;BME280;4988;49.238;6.698;2022-07-10T01:25:46;99931.00;;;17.87;67.14
9899;BME280;4988;49.238;6.698;2022-07-10T01:28:12;99928.75;;;17.95;66.77
9899;BME280;4988;49.238;6.698;2022-07-10T01:30:37;99927.00;;;18.09;66.56
9899;BME280;4988;49.238;6.698;2022-07-10T01:33:03;99932.28;;;18.10;66.37
9899;BME280;4988;49.238;6.698;2022-07-10T01:35:28;99915.25;;;18.10;66.45
9899;BME280;4988;49.238;6.698;2022-07-10T01:37:53;99931.81;;;18.04;67.18
9899;BME280;4988;49.238;6.698;2022-07-10T01:40:19;99929.31;;;18.00;66.42
9899;BME280;4988;49.238;6.698;2022-07-10T01:42:44;99931.81;;;18.04;66.69
9899;BME280;4988;49.238;6.698;2022-07-10T01:45:11;99942.78;;;18.00;66.85
9899;BME280;4988;49.238;6.698;2022-07-10T01:47:37;99948.72;;;17.91;66.94
9899;BME280;4988;49.238;6.698;2022-07-10T01:50:03;99954.00;;;17.78;67.97
9899;BME280;4988;49.238;6.698;2022-07-10T01:52:29;99957.59;;;17.79;67.39
9899;BME280;4988;49.238;6.698;2022-07-10T01:54:54;99950.66;;;17.60;68.09
9899;BME280;4988;49.238;6.698;2022-07-10T01:57:20;99957.00;;;17.59;68.37
9899;BME280;4988;49.238;6.698;2022-07-10T01:59:45;99952.88;;;17.53;68.41
9899;BME280;4988;49.238;6.698;2022-07-10T02:02:10;99946.34;;;17.43;68.83
9899;BME280;4988;49.238;6.698;2022-07-10T02:04:36;99944.69;;;17.41;69.31
9899;BME280;4988;49.238;6.698;2022-07-10T02:07:08;99953.03;;;17.36;69.07
9899;BME280;4988;49.238;6.698;2022-07-10T02:09:35;99953.72;;;17.40;69.30
9899;BME280;4988;49.238;6.698;2022-07-10T02:12:01;99961.41;;;17.31;69.59
9899;BME280;4988;49.238;6.698;2022-07-10T02:14:26;99955.59;;;17.23;70.26
9899;BME280;4988;49.238;6.698;2022-07-10T02:16:51;99947.53;;;17.09;70.54
9899;BME280;4988;49.238;6.698;2022-07-10T02:19:17;99956.50;;;16.93;71.74
9899;BME280;4988;49.238;6.698;2022-07-10T02:21:42;99949.91;;;16.83;72.04
9899;BME280;4988;49.238;6.698;2022-07-10T02:24:08;99949.63;;;16.87;72.21
9899;BME280;4988;49.238;6.698;2022-07-10T02:26:34;99940.69;;;16.87;72.37
9899;BME280;4988;49.238;6.698;2022-07-10T02:28:59;99946.28;;;16.84;71.92
9899;BME280;4988;49.238;6.698;2022-07-10T02:31:25;99940.00;;;16.83;71.40
9899;BME280;4988;49.238;6.698;2022-07-10T02:33:50;99945.28;;;16.85;72.32
9899;BME280;4988;49.238;6.698;2022-07-10T02:36:15;99939.88;;;16.70;72.17
9899;BME280;4988;49.238;6.698;2022-07-10T02:38:41;99943.38;;;16.40;74.10
9899;BME280;4988;49.238;6.698;2022-07-10T02:41:06;99941.84;;;16.20;75.08
9899;BME280;4988;49.238;6.698;2022-07-10T02:43:31;99952.41;;;15.91;76.36
9899;BME280;4988;49.238;6.698;2022-07-10T02:45:57;99951.00;;;15.67;78.23
9899;BME280;4988;49.238;6.698;2022-07-10T02:48:22;99955.25;;;15.55;78.76
9899;BME280;4988;49.238;6.698;2022-07-10T02:50:47;99958.69;;;15.57;78.79
9899;BME280;4988;49.238;6.698;2022-07-10T02:53:13;99959.66;;;15.38;79.52
9899;BME280;4988;49.238;6.698;2022-07-10T02:55:38;99956.22;;;15.36;79.92
9899;BME280;4988;49.238;6.698;2022-07-10T02:58:03;99953.00;;;15.12;81.52
9899;BME280;4988;49.238;6.698;2022-07-10T03:00:29;99953.53;;;15.01;80.61
9899;BME280;4988;49.238;6.698;2022-07-10T03:02:55;99955.78;;;14.93;81.70
9899;BME280;4988;49.238;6.698;2022-07-10T03:05:21;99960.78;;;14.82;82.58
9899;BME280;4988;49.238;6.698;2022-07-10T03:07:46;99957.66;;;14.73;82.30
9899;BME280;4988;49.238;6.698;2022-07-10T03:10:12;99956.63;;;14.57;83.61
9899;BME280;4988;49.238;6.698;2022-07-10T03:12:37;99949.22;;;14.62;84.40
9899;BME280;4988;49.238;6.698;2022-07-10T03:15:06;99957.25;;;14.62;83.36
9899;BME280;4988;49.238;6.698;2022-07-10T03:17:32;99949.53;;;14.56;83.78
9899;BME280;4988;49.238;6.698;2022-07-10T03:19:57;99953.44;;;14.68;83.22
9899;BME280;4988;49.238;6.698;2022-07-10T03:22:22;99944.72;;;14.82;82.69
9899;BME280;4988;49.238;6.698;2022-07-10T03:24:48;99949.44;;;14.94;81.77
9899;BME280;4988;49.238;6.698;2022-07-10T03:27:14;99945.81;;;14.95;81.74
9899;BME280;4988;49.238;6.698;2022-07-10T03:29:40;99945.09;;;14.91;81.30
9899;BME280;4988;49.238;6.698;2022-07-10T03:32:06;99956.53;;;14.95;81.22
9899;BME280;4988;49.238;6.698;2022-07-10T03:34:31;99964.66;;;14.76;82.90
9899;BME280;4988;49.238;6.698;2022-07-10T03:37:01;99967.66;;;14.51;83.88
9899;BME280;4988;49.238;6.698;2022-07-10T03:39:27;99963.72;;;14.58;83.36
9899;BME280;4988;49.238;6.698;2022-07-10T03:41:53;99965.75;;;14.72;82.76
9899;BME280;4988;49.238;6.698;2022-07-10T03:44:18;99956.00;;;14.88;82.73
9899;BME280;4988;49.238;6.698;2022-07-10T03:46:43;99953.22;;;14.90;82.27
9899;BME280;4988;49.238;6.698;2022-07-10T03:49:08;99950.72;;;15.04;80.92
9899;BME280;4988;49.238;6.698;2022-07-10T03:51:34;99956.09;;;15.04;81.81
9899;BME280;4988;49.238;6.698;2022-07-10T03:53:59;99952.47;;;15.05;80.83
9899;BME280;4988;49.238;6.698;2022-07-10T03:56:25;99954.75;;;15.13;80.71
9899;BME280;4988;49.238;6.698;2022-07-10T03:59:09;99951.34;;;15.09;80.00
9899;BME280;4988;49.238;6.698;2022-07-10T04:01:34;99955.91;;;15.07;80.92
9899;BME280;4988;49.238;6.698;2022-07-10T04:03:59;99959.47;;;15.08;80.64
9899;BME280;4988;49.238;6.698;2022-07-10T04:06:25;99961.13;;;15.10;79.96
9899;BME280;4988;49.238;6.698;2022-07-10T04:08:50;99953.28;;;15.23;79.39
9899;BME280;4988;49.238;6.698;2022-07-10T04:11:15;99954.41;;;15.19;80.11
9899;BME280;4988;49.238;6.698;2022-07-10T04:13:41;99962.16;;;15.25;79.82
9899;BME280;4988;49.238;6.698;2022-07-10T04:16:06;99952.41;;;15.40;79.44
9899;BME280;4988;49.238;6.698;2022-07-10T04:18:35;99947.88;;;15.58;77.56
9899;BME280;4988;49.238;6.698;2022-07-10T04:21:00;99952.50;;;15.72;77.60
9899;BME280;4988;49.238;6.698;2022-07-10T04:23:25;99956.88;;;15.91;76.43
9899;BME280;4988;49.238;6.698;2022-07-10T04:25:51;99956.88;;;15.91;75.45
9899;BME280;4988;49.238;6.698;2022-07-10T04:28:16;99962.09;;;15.94;75.67
9899;BME280;4988;49.238;6.698;2022-07-10T04:30:41;99960.78;;;16.01;74.79
9899;BME280;4988;49.238;6.698;2022-07-10T04:33:07;99962.63;;;16.01;74.42
9899;BME280;4988;49.238;6.698;2022-07-10T04:35:32;99973.38;;;16.01;73.10
9899;BME280;4988;49.238;6.698;2022-07-10T04:37:57;99981.78;;;16.11;72.77
9899;BME280;4988;49.238;6.698;2022-07-10T04:40:23;99980.50;;;16.18;71.75
9899;BME280;4988;49.238;6.698;2022-07-10T04:42:48;99979.09;;;16.27;71.66
9899;BME280;4988;49.238;6.698;2022-07-10T04:45:14;99984.81;;;16.36;69.04
9899;BME280;4988;49.238;6.698;2022-07-10T04:47:39;99991.69;;;16.42;69.00
9899;BME280;4988;49.238;6.698;2022-07-10T04:50:05;99982.03;;;16.54;68.93
9899;BME280;4988;49.238;6.698;2022-07-10T04:52:30;99985.59;;;16.54;68.80
9899;BME280;4988;49.238;6.698;2022-07-10T04:54:55;99984.81;;;16.52;68.94
9899;BME280;4988;49.238;6.698;2022-07-10T04:57:21;99988.44;;;16.51;68.54
9899;BME280;4988;49.238;6.698;2022-07-10T04:59:46;99980.72;;;16.61;68.54
9899;BME280;4988;49.238;6.698;2022-07-10T05:02:11;99986.09;;;16.61;67.84
9899;BME280;4988;49.238;6.698;2022-07-10T05:04:37;99991.81;;;16.71;68.14
9899;BME280;4988;49.238;6.698;2022-07-10T05:07:03;99986.69;;;16.66;66.89
9899;BME280;4988;49.238;6.698;2022-07-10T05:09:28;99997.47;;;16.50;66.48
9899;BME280;4988;49.238;6.698;2022-07-10T05:11:53;99999.47;;;16.47;67.22
9899;BME280;4988;49.238;6.698;2022-07-10T05:14:19;100000.09;;;16.52;67.40
9899;BME280;4988;49.238;6.698;2022-07-10T05:16:44;99998.00;;;16.57;66.18
9899;BME280;4988;49.238;6.698;2022-07-10T05:19:09;99995.22;;;16.59;65.66
9899;BME280;4988;49.238;6.698;2022-07-10T05:21:35;100000.56;;;16.75;65.64
9899;BME280;4988;49.238;6.698;2022-07-10T05:24:00;100005.84;;;16.76;65.81
9899;BME280;4988;49.238;6.698;2022-07-10T05:26:26;100013.81;;;16.78;65.08
9899;BME280;4988;49.238;6.698;2022-07-10T05:28:51;100005.25;;;16.87;64.91
9899;BME280;4988;49.238;6.698;2022-07-10T05:31:17;100005.69;;;16.95;64.64
9899;BME280;4988;49.238;6.698;2022-07-10T05:33:42;100007.47;;;17.11;64.30
9899;BME280;4988;49.238;6.698;2022-07-10T05:36:08;100002.59;;;17.17;63.44
9899;BME280;4988;49.238;6.698;2022-07-10T05:38:34;100004.41;;;17.17;62.80
9899;BME280;4988;49.238;6.698;2022-07-10T05:40:59;100009.41;;;17.23;63.00
9899;BME280;4988;49.238;6.698;2022-07-10T05:43:24;100010.78;;;17.30;62.31
9899;BME280;4988;49.238;6.698;2022-07-10T05:45:50;100006.59;;;17.41;61.70
9899;BME280;4988;49.238;6.698;2022-07-10T05:48:16;100014.00;;;17.37;60.63
9899;BME280;4988;49.238;6.698;2022-07-10T05:50:41;100018.88;;;17.30;59.20
9899;BME280;4988;49.238;6.698;2022-07-10T05:53:06;100016.06;;;17.32;58.94
9899;BME280;4988;49.238;6.698;2022-07-10T05:55:32;100020.81;;;17.28;58.31
9899;BME280;4988;49.238;6.698;2022-07-10T05:57:57;100020.22;;;17.38;58.31
9899;BME280;4988;49.238;6.698;2022-07-10T06:00:24;100022.84;;;17.53;57.17
9899;BME280;4988;49.238;6.698;2022-07-10T06:02:49;100029.34;;;17.65;56.77
9899;BME280;4988;49.238;6.698;2022-07-10T06:05:15;100019.50;;;17.64;55.97
9899;BME280;4988;49.238;6.698;2022-07-10T06:07:40;100023.75;;;17.68;55.43
9899;BME280;4988;49.238;6.698;2022-07-10T06:10:06;100022.97;;;17.52;55.43
9899;BME280;4988;49.238;6.698;2022-07-10T06:12:32;100024.69;;;17.53;55.96
9899;BME280;4988;49.238;6.698;2022-07-10T06:14:57;100014.19;;;17.48;55.11
9899;BME280;4988;49.238;6.698;2022-07-10T06:17:23;100022.84;;;17.53;56.02
9899;BME280;4988;49.238;6.698;2022-07-10T06:19:48;100025.19;;;17.60;56.24
9899;BME280;4988;49.238;6.698;2022-07-10T06:22:14;100028.38;;;17.66;56.62
9899;BME280;4988;49.238;6.698;2022-07-10T06:25:00;100030.69;;;17.73;56.40
9899;BME280;4988;49.238;6.698;2022-07-10T06:27:26;100032.19;;;17.62;56.03
9899;BME280;4988;49.238;6.698;2022-07-10T06:29:51;100032.56;;;17.56;56.32
9899;BME280;4988;49.238;6.698;2022-07-10T06:32:17;100027.88;;;17.60;55.66
9899;BME280;4988;49.238;6.698;2022-07-10T06:34:42;100031.22;;;17.49;56.40
9899;BME280;4988;49.238;6.698;2022-07-10T06:37:07;100034.09;;;17.46;57.20
9899;BME280;4988;49.238;6.698;2022-07-10T06:39:33;100029.63;;;17.30;56.46
9899;BME280;4988;49.238;6.698;2022-07-10T06:42:00;100028.41;;;17.36;57.35
9899;BME280;4988;49.238;6.698;2022-07-10T06:44:25;100025.44;;;17.41;57.16
9899;BME280;4988;49.238;6.698;2022-07-10T06:46:51;100014.78;;;17.53;57.46
9899;BME280;4988;49.238;6.698;2022-07-10T06:49:35;100014.72;;;17.69;56.64
9899;BME280;4988;49.238;6.698;2022-07-10T06:52:00;100015.47;;;17.86;55.75
9899;BME280;4988;49.238;6.698;2022-07-10T06:54:26;100017.78;;;17.92;55.01
9899;BME280;4988;49.238;6.698;2022-07-10T06:56:52;100015.91;;;17.94;54.44
9899;BME280;4988;49.238;6.698;2022-07-10T06:59:17;100020.72;;;18.04;53.88
9899;BME280;4988;49.238;6.698;2022-07-10T07:01:42;100021.19;;;18.10;54.44
9899;BME280;4988;49.238;6.698;2022-07-10T07:04:08;100022.63;;;18.16;54.27
9899;BME280;4988;49.238;6.698;2022-07-10T07:06:33;100023.31;;;18.20;54.42
9899;BME280;4988;49.238;6.698;2022-07-10T07:08:58;100015.41;;;18.31;54.05
9899;BME280;4988;49.238;6.698;2022-07-10T07:11:24;100018.59;;;18.23;53.71
9899;BME280;4988;49.238;6.698;2022-07-10T07:13:49;100030.63;;;18.17;53.35
9899;BME280;4988;49.238;6.698;2022-07-10T07:16:14;100023.59;;;18.15;53.77
9899;BME280;4988;49.238;6.698;2022-07-10T07:18:43;100015.78;;;18.25;53.02
9899;BME280;4988;49.238;6.698;2022-07-10T07:21:14;100014.50;;;18.45;52.89
9899;BME280;4988;49.238;6.698;2022-07-10T07:24:04;100017.94;;;18.61;51.53
9899;BME280;4988;49.238;6.698;2022-07-10T07:26:30;100023.53;;;18.58;50.60
9899;BME280;4988;49.238;6.698;2022-07-10T07:28:55;100017.94;;;18.61;50.68
9899;BME280;4988;49.238;6.698;2022-07-10T07:31:21;100019.91;;;18.72;51.06
9899;BME280;4988;49.238;6.698;2022-07-10T07:33:46;100027.03;;;18.73;50.29
9899;BME280;4988;49.238;6.698;2022-07-10T07:36:12;100022.19;;;18.78;50.14
9899;BME280;4988;49.238;6.698;2022-07-10T07:38:37;100021.75;;;18.72;49.54
9899;BME280;4988;49.238;6.698;2022-07-10T07:41:02;100029.44;;;18.78;50.03
9899;BME280;4988;49.238;6.698;2022-07-10T07:43:28;100033.09;;;18.77;50.14
9899;BME280;4988;49.238;6.698;2022-07-10T07:45:53;100035.69;;;18.78;49.42
9899;BME280;4988;49.238;6.698;2022-07-10T07:48:18;100041.97;;;18.79;49.86
9899;BME280;4988;49.238;6.698;2022-07-10T07:50:44;100042.34;;;18.87;49.48
9899;BME280;4988;49.238;6.698;2022-07-10T07:53:09;100028.53;;;18.92;49.14
9899;BME280;4988;49.238;6.698;2022-07-10T07:55:35;100035.38;;;18.98;49.74
9899;BME280;4988;49.238;6.698;2022-07-10T07:58:02;100034.56;;;19.10;49.56
9899;BME280;4988;49.238;6.698;2022-07-10T08:00:28;100033.94;;;19.19;48.79
9899;BME280;4988;49.238;6.698;2022-07-10T08:02:55;100037.94;;;19.26;49.14
9899;BME280;4988;49.238;6.698;2022-07-10T08:05:21;100025.75;;;19.34;47.73
9899;BME280;4988;49.238;6.698;2022-07-10T08:07:53;100028.13;;;19.25;48.65
9899;BME280;4988;49.238;6.698;2022-07-10T08:10:22;100019.81;;;19.28;48.07
9899;BME280;4988;49.238;6.698;2022-07-10T08:12:48;100020.16;;;19.37;48.30
9899;BME280;4988;49.238;6.698;2022-07-10T08:15:18;100020.16;;;19.37;48.55
9899;BME280;4988;49.238;6.698;2022-07-10T08:17:52;100017.34;;;19.38;47.61
9899;BME280;4988;49.238;6.698;2022-07-10T08:20:18;100021.13;;;19.36;48.02
9899;BME280;4988;49.238;6.698;2022-07-10T08:22:44;100021.66;;;19.41;48.31
9899;BME280;4988;49.238;6.698;2022-07-10T08:25:10;100020.28;;;19.48;47.62
9899;BME280;4988;49.238;6.698;2022-07-10T08:27:36;100019.50;;;19.46;47.68
9899;BME280;4988;49.238;6.698;2022-07-10T08:30:03;100018.34;;;19.50;47.30
9899;BME280;4988;49.238;6.698;2022-07-10T08:32:28;100008.50;;;19.49;47.42
9899;BME280;4988;49.238;6.698;2022-07-10T08:34:54;100018.66;;;19.58;47.69
9899;BME280;4988;49.238;6.698;2022-07-10T08:37:23;100011.53;;;19.70;47.20
9899;BME280;4988;49.238;6.698;2022-07-10T08:39:48;100008.09;;;19.81;47.50
9899;BME280;4988;49.238;6.698;2022-07-10T08:42:15;100005.38;;;19.94;47.08
9899;BME280;4988;49.238;6.698;2022-07-10T08:44:41;100005.81;;;20.01;46.79
9899;BME280;4988;49.238;6.698;2022-07-10T08:47:06;100005.38;;;20.07;46.74
9899;BME280;4988;49.238;6.698;2022-07-10T08:49:32;100007.00;;;20.09;46.33
9899;BME280;4988;49.238;6.698;2022-07-10T08:52:12;100006.56;;;20.16;45.26
9899;BME280;4988;49.238;6.698;2022-07-10T08:54:44;100010.22;;;20.15;45.53
9899;BME280;4988;49.238;6.698;2022-07-10T08:57:10;100001.34;;;20.13;45.80
9899;BME280;4988;49.238;6.698;2022-07-10T08:59:36;99998.13;;;20.07;46.00
9899;BME280;4988;49.238;6.698;2022-07-10T09:02:01;100000.63;;;19.98;46.43
9899;BME280;4988;49.238;6.698;2022-07-10T09:04:27;99991.03;;;19.93;46.39
9899;BME280;4988;49.238;6.698;2022-07-10T09:06:54;99995.53;;;20.06;46.39
9899;BME280;4988;49.238;6.698;2022-07-10T09:09:20;99996.84;;;20.13;45.97
9899;BME280;4988;49.238;6.698;2022-07-10T09:11:46;99994.34;;;20.23;46.33
9899;BME280;4988;49.238;6.698;2022-07-10T09:14:14;99987.50;;;20.30;45.22
9899;BME280;4988;49.238;6.698;2022-07-10T09:16:44;99988.16;;;20.34;45.32
9899;BME280;4988;49.238;6.698;2022-07-10T09:19:19;99986.59;;;20.43;45.70
9899;BME280;4988;49.238;6.698;2022-07-10T09:21:50;99983.06;;;20.53;45.50
9899;BME280;4988;49.238;6.698;2022-07-10T09:24:16;99984.13;;;20.64;44.31
9899;BME280;4988;49.238;6.698;2022-07-10T09:26:58;99974.91;;;20.66;45.11
9899;BME280;4988;49.238;6.698;2022-07-10T09:29:29;99981.94;;;20.69;44.38
9899;BME280;4988;49.238;6.698;2022-07-10T09:31:56;99975.78;;;20.67;44.22
9899;BME280;4988;49.238;6.698;2022-07-10T09:34:45;99975.69;;;20.68;44.50
9899;BME280;4988;49.238;6.698;2022-07-10T09:37:26;99972.16;;;20.79;44.35
9899;BME280;4988;49.238;6.698;2022-07-10T09:40:03;99964.34;;;20.87;44.24
9899;BME280;4988;49.238;6.698;2022-07-10T09:42:37;99967.63;;;21.04;44.02
9899;BME280;4988;49.238;6.698;2022-07-10T09:47:59;99960.31;;;20.93;43.64
9899;BME280;4988;49.238;6.698;2022-07-10T09:50:34;99964.13;;;20.91;43.91
9899;BME280;4988;49.238;6.698;2022-07-10T09:53:02;99960.53;;;20.90;44.03
9899;BME280;4988;49.238;6.698;2022-07-10T09:55:32;99957.00;;;21.01;43.38
9899;BME280;4988;49.238;6.698;2022-07-10T09:58:03;99957.69;;;21.16;43.56
9899;BME280;4988;49.238;6.698;2022-07-10T10:00:40;99957.94;;;21.24;43.74
9899;BME280;4988;49.238;6.698;2022-07-10T10:03:08;99963.75;;;21.31;42.24
9899;BME280;4988;49.238;6.698;2022-07-10T10:05:37;99964.50;;;21.33;42.15
9899;BME280;4988;49.238;6.698;2022-07-10T10:08:25;99967.91;;;21.24;42.22
9899;BME280;4988;49.238;6.698;2022-07-10T10:10:56;99964.16;;;21.37;42.19
9899;BME280;4988;49.238;6.698;2022-07-10T10:13:25;99966.22;;;21.34;41.94
9899;BME280;4988;49.238;6.698;2022-07-10T10:15:56;99962.28;;;21.38;42.20
9899;BME280;4988;49.238;6.698;2022-07-10T10:18:26;99956.75;;;21.40;42.28
9899;BME280;4988;49.238;6.698;2022-07-10T10:20:53;99953.94;;;21.52;42.07
9899;BME280;4988;49.238;6.698;2022-07-10T10:23:20;99956.38;;;21.56;42.00
9899;BME280;4988;49.238;6.698;2022-07-10T10:25:51;99953.50;;;21.59;42.15
9899;BME280;4988;49.238;6.698;2022-07-10T10:28:19;99942.69;;;21.34;42.04
9899;BME280;4988;49.238;6.698;2022-07-10T10:30:49;99947.00;;;21.26;42.20
9899;BME280;4988;49.238;6.698;2022-07-10T10:33:48;99949.22;;;21.43;42.09
9899;BME280;4988;49.238;6.698;2022-07-10T10:41:39;99935.16;;;21.15;42.59
9899;BME280;4988;49.238;6.698;2022-07-10T10:46:56;99932.22;;;21.30;42.45
9899;BME280;4988;49.238;6.698;2022-07-10T10:49:23;99931.75;;;21.36;42.88
9899;BME280;4988;49.238;6.698;2022-07-10T10:52:00;99930.31;;;21.55;42.54
9899;BME280;4988;49.238;6.698;2022-07-10T10:54:28;99928.47;;;21.78;41.92
9899;BME280;4988;49.238;6.698;2022-07-10T10:57:13;99930.31;;;21.89;41.29
9899;BME280;4988;49.238;6.698;2022-07-10T10:59:53;99930.91;;;22.04;40.99
9899;BME280;4988;49.238;6.698;2022-07-10T11:02:29;99932.31;;;21.98;41.11
9899;BME280;4988;49.238;6.698;2022-07-10T11:07:57;99922.56;;;21.95;41.29
9899;BME280;4988;49.238;6.698;2022-07-10T11:10:43;99924.31;;;21.96;41.71
9899;BME280;4988;49.238;6.698;2022-07-10T11:13:15;99926.75;;;21.88;41.96
9899;BME280;4988;49.238;6.698;2022-07-10T11:15:46;99922.69;;;21.94;42.04
9899;BME280;4988;49.238;6.698;2022-07-10T11:18:14;99925.25;;;22.07;41.88
9899;BME280;4988;49.238;6.698;2022-07-10T11:20:41;99918.75;;;21.98;41.84
9899;BME280;4988;49.238;6.698;2022-07-10T11:26:04;99906.63;;;22.13;41.86
9899;BME280;4988;49.238;6.698;2022-07-10T11:29:20;99902.09;;;22.14;42.00
9899;BME280;4988;49.238;6.698;2022-07-10T11:31:39;99899.19;;;22.38;42.56
9899;BME280;4988;49.238;6.698;2022-07-10T11:34:10;99900.94;;;22.28;42.52
9899;BME280;4988;49.238;6.698;2022-07-10T11:36:38;99902.78;;;22.27;43.19
9899;BME280;4988;49.238;6.698;2022-07-10T11:39:08;99897.75;;;22.23;41.73
9899;BME280;4988;49.238;6.698;2022-07-10T11:41:34;99897.63;;;22.13;41.85
9899;BME280;4988;49.238;6.698;2022-07-10T11:44:13;99891.78;;;21.96;42.83
9899;BME280;4988;49.238;6.698;2022-07-10T11:46:39;99895.97;;;21.89;43.12
9899;BME280;4988;49.238;6.698;2022-07-10T11:49:06;99898.28;;;21.82;43.65
9899;BME280;4988;49.238;6.698;2022-07-10T11:51:39;99893.50;;;21.86;43.16
9899;BME280;4988;49.238;6.698;2022-07-10T11:54:08;99876.09;;;21.89;43.21
9899;BME280;4988;49.238;6.698;2022-07-10T11:56:39;99883.22;;;22.12;42.86
9899;BME280;4988;49.238;6.698;2022-07-10T11:59:08;99878.91;;;22.21;43.15
9899;BME280;4988;49.238;6.698;2022-07-10T12:01:44;99876.66;;;22.38;42.69
9899;BME280;4988;49.238;6.698;2022-07-10T12:04:11;99881.69;;;22.42;42.75
9899;BME280;4988;49.238;6.698;2022-07-10T12:06:39;99891.41;;;22.45;42.65
9899;BME280;4988;49.238;6.698;2022-07-10T12:09:09;99879.19;;;22.51;42.49
9899;BME280;4988;49.238;6.698;2022-07-10T12:11:36;99874.78;;;22.71;42.80
9899;BME280;4988;49.238;6.698;2022-07-10T12:14:18;99865.91;;;22.90;42.24
9899;BME280;4988;49.238;6.698;2022-07-10T12:16:45;99865.44;;;23.06;41.60
9899;BME280;4988;49.238;6.698;2022-07-10T12:19:12;99858.25;;;23.16;41.61
9899;BME280;4988;49.238;6.698;2022-07-10T12:21:42;99865.28;;;23.19;41.58
9899;BME280;4988;49.238;6.698;2022-07-10T12:24:09;99868.84;;;23.19;41.15
9899;BME280;4988;49.238;6.698;2022-07-10T12:26:39;99868.00;;;23.19;40.90
9899;BME280;4988;49.238;6.698;2022-07-10T12:29:05;99860.69;;;23.19;41.37
9899;BME280;4988;49.238;6.698;2022-07-10T12:31:34;99860.88;;;23.27;41.11
9899;BME280;4988;49.238;6.698;2022-07-10T12:34:04;99861.28;;;23.23;41.08
9899;BME280;4988;49.238;6.698;2022-07-10T12:36:51;99866.91;;;23.31;41.35
9899;BME280;4988;49.238;6.698;2022-07-10T12:39:18;99864.94;;;23.33;41.30
9899;BME280;4988;49.238;6.698;2022-07-10T12:44:45;99859.81;;;23.40;41.37
9899;BME280;4988;49.238;6.698;2022-07-10T12:47:18;99859.50;;;23.33;41.20
9899;BME280;4988;49.238;6.698;2022-07-10T12:50:04;99853.03;;;23.34;41.39
9899;BME280;4988;49.238;6.698;2022-07-10T12:52:31;99857.97;;;23.50;41.55
9899;BME280;4988;49.238;6.698;2022-07-10T12:57:57;99854.38;;;23.81;40.59
9899;BME280;4988;49.238;6.698;2022-07-10T13:00:25;99844.88;;;23.96;40.68
9899;BME280;4988;49.238;6.698;2022-07-10T13:03:07;99849.63;;;24.14;40.65
9899;BME280;4988;49.238;6.698;2022-07-10T13:05:38;99854.66;;;24.18;40.21
9899;BME280;4988;49.238;6.698;2022-07-10T13:10:47;99866.78;;;24.04;40.26
9899;BME280;4988;49.238;6.698;2022-07-10T13:13:13;99853.34;;;24.13;40.17
9899;BME280;4988;49.238;6.698;2022-07-10T13:15:39;99857.22;;;24.20;40.12
9899;BME280;4988;49.238;6.698;2022-07-10T13:18:16;99859.06;;;24.09;40.83
9899;BME280;4988;49.238;6.698;2022-07-10T13:20:46;99854.47;;;24.00;40.58
9899;BME280;4988;49.238;6.698;2022-07-10T13:23:11;99856.84;;;23.84;40.66
9899;BME280;4988;49.238;6.698;2022-07-10T13:25:37;99841.09;;;23.87;41.25
9899;BME280;4988;49.238;6.698;2022-07-10T13:28:05;99851.41;;;23.84;41.21
9899;BME280;4988;49.238;6.698;2022-07-10T13:30:30;99839.56;;;23.95;40.73
9899;BME280;4988;49.238;6.698;2022-07-10T13:33:13;99846.91;;;24.14;41.14
9899;BME280;4988;49.238;6.698;2022-07-10T13:35:39;99854.06;;;24.05;40.70
9899;BME280;4988;49.238;6.698;2022-07-10T13:38:04;99849.59;;;24.04;40.94
9899;BME280;4988;49.238;6.698;2022-07-10T13:40:32;99851.97;;;23.87;41.10
9899;BME280;4988;49.238;6.698;2022-07-10T13:42:59;99856.94;;;23.82;41.25
9899;BME280;4988;49.238;6.698;2022-07-10T13:45:25;99853.56;;;23.90;40.98
9899;BME280;4988;49.238;6.698;2022-07-10T13:47:55;99847.91;;;24.13;41.09